»·PEaware :: AAL291 KLAS-KSLC

AAL291 :: KLAS-KSLC

FLIGHT INFORMATION

Flight Status: Arrived
Operator:
American Airlines
More flights by this operator :: More flights under this callsign
Pilot: Dave P. (45)
Aircraft: BOEING 737-800
(B738)
More flights by this aircraft type
Origin: KLAS McCarran Intl
United States
Destination: KSLC Salt Lake City Intl
United States
More flights between these airports :: More routes between these airports
Route: TRALR9 MLF QWENN5
File this flight plan on PilotEdge
Remarks: PBN / A1B1C1D1S1S2 DOF / 181114 REG / N738PM EET / KZLC0025 OPR / AAL PER / D RMK / TCAS SIMBRIEF
Altitude:
(Current/Filed)
31,000ft
Speed:
(Current/Filed)
455kts
Departed: 13-Nov-18 07:20 PM
Arrived: 13-Nov-18 08:26 PM
Distance/Time
Traveled:
319nm/1:05
Distance/Time
To Go:
Arrived

Flight Plot

Page will automatically refresh every two minutes.

Flight plan parsing failed; only flown route is shown


Map Options




Map Legend


Flown Route
Filed Route
Departure Airport
Arrival Airport
Navaid (VOR, NDB)
Fix

Horizontal Profiles

Position Reports

Time Latitude Longitude Heading Altitude Ground
Speed
13-Nov-18 19:03 36.080370 -115.140593 97 2189ft 0kts
13-Nov-18 19:04 36.080370 -115.140593 97 2189ft 0kts
13-Nov-18 19:05 36.080370 -115.140593 97 2189ft 0kts
13-Nov-18 19:06 36.080370 -115.140593 97 2189ft 0kts
13-Nov-18 19:07 36.080370 -115.140593 97 2189ft 0kts
13-Nov-18 19:08 36.080370 -115.140593 97 2189ft 0kts
13-Nov-18 19:09 36.080370 -115.140593 97 2189ft 0kts
13-Nov-18 19:10 36.080370 -115.140593 97 2189ft 0kts
13-Nov-18 19:11 36.080370 -115.140593 97 2189ft 0kts
13-Nov-18 19:12 36.080370 -115.140593 97 2189ft 0kts
13-Nov-18 19:13 36.080370 -115.140593 97 2189ft 0kts
13-Nov-18 19:14 36.080394 -115.140806 101 2189ft 2kts
13-Nov-18 19:15 36.080948 -115.141446 168 2189ft 2kts
13-Nov-18 19:16 36.081078 -115.141466 176 2189ft 0kts
13-Nov-18 19:17 36.081078 -115.141466 176 2189ft 0kts
13-Nov-18 19:18 36.079573 -115.141364 131 2189ft 5kts
13-Nov-18 19:19 36.078239 -115.138132 89 2189ft 18kts
13-Nov-18 19:20 36.078248 -115.130927 89 2189ft 18kts
13-Nov-18 19:21 36.078249 -115.123629 92 2189ft 16kts
13-Nov-18 19:22 36.076394 -115.121441 238 2189ft 7kts
13-Nov-18 19:23 36.076347 -115.124725 270 2189ft 59kts
13-Nov-18 19:24 36.076327 -115.173784 269 3585ft 171kts
13-Nov-18 19:25 36.072498 -115.245199 243 5218ft 256kts
13-Nov-18 19:26 36.006373 -115.285035 199 6998ft 282kts
13-Nov-18 19:27 35.930492 -115.283353 147 8513ft 286kts
13-Nov-18 19:28 35.914187 -115.196300 67 11311ft 300kts
13-Nov-18 19:29 35.946034 -115.089072 68 13157ft 353kts
13-Nov-18 19:30 35.980391 -114.972642 68 15974ft 371kts
13-Nov-18 19:31 36.016483 -114.849979 67 18551ft 389kts
13-Nov-18 19:32 36.054408 -114.722062 67 19537ft 397kts
13-Nov-18 19:33 36.096684 -114.593672 51 21693ft 406kts
13-Nov-18 19:34 36.189260 -114.516006 26 23663ft 412kts
13-Nov-18 19:35 36.291396 -114.447390 25 25513ft 422kts
13-Nov-18 19:36 36.396016 -114.376837 25 27135ft 433kts
13-Nov-18 19:37 36.503819 -114.306950 23 28554ft 442kts
13-Nov-18 19:38 36.612081 -114.235759 24 30445ft 437kts
13-Nov-18 19:39 36.718944 -114.163234 24 31556ft 440kts
13-Nov-18 19:40 36.825699 -114.090032 24 31564ft 436kts
13-Nov-18 19:41 36.932038 -114.016845 24 31566ft 437kts
13-Nov-18 19:42 37.038392 -113.943851 24 31574ft 434kts
13-Nov-18 19:43 37.144350 -113.870756 24 31572ft 435kts
13-Nov-18 19:44 37.232627 -113.809621 24 31573ft 435kts
13-Nov-18 19:45 37.356428 -113.723576 24 31576ft 435kts
13-Nov-18 19:46 37.462503 -113.649580 24 31582ft 436kts
13-Nov-18 19:47 37.568374 -113.575481 24 31592ft 436kts
13-Nov-18 19:48 37.656758 -113.513433 25 31600ft 436kts
13-Nov-18 19:49 37.780334 -113.426389 25 31607ft 432kts
13-Nov-18 19:50 37.883050 -113.353783 24 31610ft 420kts
13-Nov-18 19:51 37.968032 -113.293531 25 31613ft 420kts
13-Nov-18 19:52 38.070347 -113.220775 25 31620ft 421kts
13-Nov-18 19:53 38.172664 -113.147967 25 31628ft 421kts
13-Nov-18 19:54 38.291510 -113.062744 25 31637ft 421kts
13-Nov-18 19:55 38.378883 -113.002329 20 31640ft 431kts
13-Nov-18 19:56 38.488786 -112.944289 18 31639ft 428kts
13-Nov-18 19:57 38.599634 -112.885698 18 31640ft 434kts
13-Nov-18 19:58 38.710973 -112.826087 18 31643ft 434kts
13-Nov-18 19:59 38.822188 -112.766191 18 31646ft 433kts
13-Nov-18 20:00 38.933311 -112.706167 19 31650ft 433kts
13-Nov-18 20:01 39.044829 -112.645876 18 31654ft 433kts
13-Nov-18 20:02 39.155809 -112.585588 19 31657ft 434kts
13-Nov-18 20:03 39.265151 -112.525853 19 29742ft 419kts
13-Nov-18 20:04 39.370647 -112.466601 20 27699ft 408kts
13-Nov-18 20:05 39.473100 -112.407707 20 25687ft 398kts
13-Nov-18 20:06 39.574891 -112.358379 11 23958ft 380kts
13-Nov-18 20:07 39.676058 -112.326936 11 22314ft 369kts
13-Nov-18 20:08 39.774927 -112.297465 11 20692ft 360kts
13-Nov-18 20:09 39.871601 -112.269798 11 19105ft 352kts
13-Nov-18 20:10 39.966329 -112.244084 11 17725ft 340kts
13-Nov-18 20:11 40.059031 -112.219443 11 16932ft 340kts
13-Nov-18 20:12 40.151018 -112.195388 11 15285ft 333kts
13-Nov-18 20:13 40.240930 -112.172508 11 13641ft 326kts
13-Nov-18 20:14 40.329262 -112.150336 11 12086ft 319kts
13-Nov-18 20:15 40.413850 -112.129700 6 11070ft 302kts
13-Nov-18 20:16 40.498049 -112.143781 351 10998ft 309kts
13-Nov-18 20:17 40.583624 -112.151373 1 10999ft 308kts
13-Nov-18 20:18 40.669676 -112.149633 1 10999ft 309kts
13-Nov-18 20:19 40.755177 -112.147720 1 10835ft 294kts
13-Nov-18 20:20 40.832418 -112.145671 1 9869ft 272kts
13-Nov-18 20:21 40.907652 -112.142935 1 8774ft 260kts
13-Nov-18 20:22 40.979485 -112.139729 5 7687ft 256kts
13-Nov-18 20:23 41.014755 -112.069865 80 7535ft 235kts
13-Nov-18 20:24 40.995781 -112.001385 165 7507ft 225kts
13-Nov-18 20:25 40.936973 -111.991914 175 6740ft 202kts
13-Nov-18 20:26 40.885090 -111.985881 175 5740ft 174kts
13-Nov-18 20:27 40.839476 -111.980573 175 4869ft 154kts
13-Nov-18 20:28 40.797496 -111.975739 175 4235ft 124kts
13-Nov-18 20:29 40.785091 -111.975392 208 4235ft 19kts
13-Nov-18 20:30 40.784143 -111.976076 207 4235ft 0kts
13-Nov-18 20:31 40.784387 -111.978066 4 4235ft 1kts
13-Nov-18 20:32 40.784706 -111.978031 4 4235ft 0kts
13-Nov-18 20:33 40.784706 -111.978031 4 4235ft 0kts
13-Nov-18 20:34 40.784706 -111.978031 4 4235ft 0kts
13-Nov-18 20:35 40.784706 -111.978031 4 4235ft 0kts
13-Nov-18 20:36 40.784706 -111.978031 4 4235ft 0kts
13-Nov-18 20:37 40.784706 -111.978031 4 4235ft 0kts
13-Nov-18 20:38 40.784706 -111.978031 4 4235ft 0kts
13-Nov-18 20:39 40.784706 -111.978031 4 4235ft 0kts
13-Nov-18 20:40 40.784706 -111.978031 4 4235ft 0kts
13-Nov-18 20:41 40.784706 -111.978031 4 4235ft 0kts
13-Nov-18 20:42 40.784706 -111.978031 4 4235ft 0kts
13-Nov-18 20:43 40.784706 -111.978031 4 4235ft 0kts

Navigation Log

Ident Type
Flight plan parsing failed, navigation log unavailable